sensor_id;sensor_type;location;lat;lon;timestamp;P1;durP1;ratioP1;P2;durP2;ratioP2
57395;SDS011;43222;52.912;6.940;2022-09-27T00:00:20;8.35;;;1.60;;
57395;SDS011;43222;52.912;6.940;2022-09-27T00:02:47;11.07;;;1.48;;
57395;SDS011;43222;52.912;6.940;2022-09-27T00:05:13;8.93;;;1.33;;
57395;SDS011;43222;52.912;6.940;2022-09-27T00:07:39;8.88;;;1.38;;
57395;SDS011;43222;52.912;6.940;2022-09-27T00:10:05;11.02;;;1.30;;
57395;SDS011;43222;52.912;6.940;2022-09-27T00:12:32;11.07;;;1.60;;
57395;SDS011;43222;52.912;6.940;2022-09-27T00:14:58;10.50;;;1.48;;
57395;SDS011;43222;52.912;6.940;2022-09-27T00:17:25;12.25;;;2.28;;
57395;SDS011;43222;52.912;6.940;2022-09-27T00:19:51;11.20;;;1.52;;
57395;SDS011;43222;52.912;6.940;2022-09-27T00:22:20;7.03;;;1.23;;
57395;SDS011;43222;52.912;6.940;2022-09-27T00:24:46;10.23;;;1.30;;
57395;SDS011;43222;52.912;6.940;2022-09-27T00:27:12;11.60;;;1.67;;
57395;SDS011;43222;52.912;6.940;2022-09-27T00:29:38;8.45;;;1.27;;
57395;SDS011;43222;52.912;6.940;2022-09-27T00:32:04;12.15;;;1.30;;
57395;SDS011;43222;52.912;6.940;2022-09-27T00:34:30;12.65;;;1.42;;
57395;SDS011;43222;52.912;6.940;2022-09-27T00:37:04;11.10;;;1.15;;
57395;SDS011;43222;52.912;6.940;2022-09-27T00:39:30;7.53;;;1.13;;
57395;SDS011;43222;52.912;6.940;2022-09-27T00:41:59;9.68;;;1.55;;
57395;SDS011;43222;52.912;6.940;2022-09-27T00:51:51;10.45;;;1.10;;
57395;SDS011;43222;52.912;6.940;2022-09-27T00:54:18;8.93;;;1.13;;
57395;SDS011;43222;52.912;6.940;2022-09-27T00:56:45;11.65;;;1.33;;
57395;SDS011;43222;52.912;6.940;2022-09-27T01:02:09;10.00;;;1.60;;
57395;SDS011;43222;52.912;6.940;2022-09-27T01:04:36;8.35;;;1.27;;
57395;SDS011;43222;52.912;6.940;2022-09-27T01:07:03;7.78;;;1.25;;
57395;SDS011;43222;52.912;6.940;2022-09-27T01:09:29;8.27;;;1.38;;
57395;SDS011;43222;52.912;6.940;2022-09-27T01:19:49;7.60;;;0.90;;
57395;SDS011;43222;52.912;6.940;2022-09-27T01:33:11;9.20;;;1.27;;
57395;SDS011;43222;52.912;6.940;2022-09-27T01:35:49;9.32;;;1.30;;
57395;SDS011;43222;52.912;6.940;2022-09-27T01:38:25;12.20;;;1.77;;
57395;SDS011;43222;52.912;6.940;2022-09-27T01:43:29;9.93;;;1.10;;
57395;SDS011;43222;52.912;6.940;2022-09-27T01:46:03;7.93;;;1.00;;
57395;SDS011;43222;52.912;6.940;2022-09-27T01:48:32;7.05;;;0.90;;
57395;SDS011;43222;52.912;6.940;2022-09-27T01:51:06;7.43;;;1.17;;
57395;SDS011;43222;52.912;6.940;2022-09-27T01:53:37;9.98;;;1.10;;
57395;SDS011;43222;52.912;6.940;2022-09-27T01:56:05;10.35;;;1.05;;
57395;SDS011;43222;52.912;6.940;2022-09-27T01:58:37;5.85;;;1.25;;
57395;SDS011;43222;52.912;6.940;2022-09-27T02:01:05;8.80;;;1.10;;
57395;SDS011;43222;52.912;6.940;2022-09-27T02:03:38;7.47;;;0.80;;
57395;SDS011;43222;52.912;6.940;2022-09-27T02:08:39;7.40;;;1.08;;
57395;SDS011;43222;52.912;6.940;2022-09-27T02:11:10;6.82;;;0.90;;
57395;SDS011;43222;52.912;6.940;2022-09-27T02:21:10;4.65;;;0.90;;
57395;SDS011;43222;52.912;6.940;2022-09-27T02:23:40;7.55;;;0.80;;
57395;SDS011;43222;52.912;6.940;2022-09-27T02:28:39;6.35;;;1.05;;
57395;SDS011;43222;52.912;6.940;2022-09-27T02:33:43;6.38;;;1.15;;
57395;SDS011;43222;52.912;6.940;2022-09-27T02:36:10;8.50;;;0.90;;
57395;SDS011;43222;52.912;6.940;2022-09-27T02:38:36;6.15;;;0.95;;
57395;SDS011;43222;52.912;6.940;2022-09-27T02:41:02;6.57;;;0.88;;
57395;SDS011;43222;52.912;6.940;2022-09-27T02:43:30;11.20;;;1.00;;
57395;SDS011;43222;52.912;6.940;2022-09-27T02:48:43;6.15;;;0.80;;
57395;SDS011;43222;52.912;6.940;2022-09-27T02:51:23;5.70;;;1.15;;
57395;SDS011;43222;52.912;6.940;2022-09-27T02:56:25;7.93;;;0.90;;
57395;SDS011;43222;52.912;6.940;2022-09-27T03:01:26;6.60;;;0.90;;
57395;SDS011;43222;52.912;6.940;2022-09-27T03:03:57;5.63;;;0.88;;
57395;SDS011;43222;52.912;6.940;2022-09-27T03:06:25;9.30;;;0.90;;
57395;SDS011;43222;52.912;6.940;2022-09-27T03:08:53;8.35;;;1.17;;
57395;SDS011;43222;52.912;6.940;2022-09-27T03:11:20;5.35;;;0.80;;
57395;SDS011;43222;52.912;6.940;2022-09-27T03:13:47;7.55;;;0.77;;
57395;SDS011;43222;52.912;6.940;2022-09-27T03:16:13;7.70;;;0.90;;
57395;SDS011;43222;52.912;6.940;2022-09-27T03:18:40;6.10;;;0.75;;
57395;SDS011;43222;52.912;6.940;2022-09-27T03:21:06;10.05;;;0.85;;
57395;SDS011;43222;52.912;6.940;2022-09-27T03:23:32;7.22;;;0.70;;
57395;SDS011;43222;52.912;6.940;2022-09-27T03:25:58;10.63;;;1.17;;
57395;SDS011;43222;52.912;6.940;2022-09-27T03:28:24;8.20;;;1.00;;
57395;SDS011;43222;52.912;6.940;2022-09-27T03:30:53;6.45;;;1.00;;
57395;SDS011;43222;52.912;6.940;2022-09-27T03:33:19;9.60;;;0.90;;
57395;SDS011;43222;52.912;6.940;2022-09-27T03:35:45;10.00;;;1.00;;
57395;SDS011;43222;52.912;6.940;2022-09-27T03:38:12;5.35;;;0.95;;
57395;SDS011;43222;52.912;6.940;2022-09-27T03:40:38;6.30;;;0.88;;
57395;SDS011;43222;52.912;6.940;2022-09-27T03:43:04;7.05;;;0.73;;
57395;SDS011;43222;52.912;6.940;2022-09-27T03:45:30;6.25;;;0.82;;
57395;SDS011;43222;52.912;6.940;2022-09-27T03:47:56;3.17;;;0.60;;
57395;SDS011;43222;52.912;6.940;2022-09-27T03:50:22;3.47;;;0.60;;
57395;SDS011;43222;52.912;6.940;2022-09-27T03:52:49;7.82;;;0.70;;
57395;SDS011;43222;52.912;6.940;2022-09-27T03:55:15;4.18;;;0.55;;
57395;SDS011;43222;52.912;6.940;2022-09-27T03:57:45;8.18;;;0.63;;
57395;SDS011;43222;52.912;6.940;2022-09-27T04:00:11;3.85;;;0.70;;
57395;SDS011;43222;52.912;6.940;2022-09-27T04:02:37;4.45;;;0.60;;
57395;SDS011;43222;52.912;6.940;2022-09-27T04:05:04;4.43;;;0.60;;
57395;SDS011;43222;52.912;6.940;2022-09-27T04:07:30;4.68;;;0.77;;
57395;SDS011;43222;52.912;6.940;2022-09-27T04:09:56;6.75;;;0.70;;
57395;SDS011;43222;52.912;6.940;2022-09-27T04:12:22;3.10;;;0.50;;
57395;SDS011;43222;52.912;6.940;2022-09-27T04:14:48;4.10;;;0.50;;
57395;SDS011;43222;52.912;6.940;2022-09-27T04:17:14;3.78;;;0.60;;
57395;SDS011;43222;52.912;6.940;2022-09-27T04:19:40;4.40;;;0.70;;
57395;SDS011;43222;52.912;6.940;2022-09-27T04:22:06;3.65;;;0.60;;
57395;SDS011;43222;52.912;6.940;2022-09-27T04:24:32;5.75;;;0.77;;
57395;SDS011;43222;52.912;6.940;2022-09-27T04:26:58;5.32;;;0.80;;
57395;SDS011;43222;52.912;6.940;2022-09-27T04:29:24;8.13;;;0.73;;
57395;SDS011;43222;52.912;6.940;2022-09-27T04:31:50;6.32;;;0.70;;
57395;SDS011;43222;52.912;6.940;2022-09-27T04:34:16;6.82;;;0.88;;
57395;SDS011;43222;52.912;6.940;2022-09-27T04:36:42;2.78;;;0.60;;
57395;SDS011;43222;52.912;6.940;2022-09-27T04:39:08;5.53;;;0.60;;
57395;SDS011;43222;52.912;6.940;2022-09-27T04:41:35;4.88;;;0.77;;
57395;SDS011;43222;52.912;6.940;2022-09-27T04:44:01;5.68;;;0.80;;
57395;SDS011;43222;52.912;6.940;2022-09-27T04:46:28;5.95;;;0.90;;
57395;SDS011;43222;52.912;6.940;2022-09-27T04:48:55;3.88;;;0.77;;
57395;SDS011;43222;52.912;6.940;2022-09-27T04:51:21;5.45;;;0.70;;
57395;SDS011;43222;52.912;6.940;2022-09-27T04:53:47;5.40;;;0.80;;
57395;SDS011;43222;52.912;6.940;2022-09-27T04:56:13;7.45;;;0.80;;
57395;SDS011;43222;52.912;6.940;2022-09-27T04:58:40;6.43;;;0.65;;
57395;SDS011;43222;52.912;6.940;2022-09-27T05:01:06;7.35;;;0.90;;
57395;SDS011;43222;52.912;6.940;2022-09-27T05:03:33;8.93;;;0.77;;
57395;SDS011;43222;52.912;6.940;2022-09-27T05:05:59;6.78;;;1.10;;
57395;SDS011;43222;52.912;6.940;2022-09-27T05:08:25;8.60;;;0.80;;
57395;SDS011;43222;52.912;6.940;2022-09-27T05:10:52;9.68;;;0.80;;
57395;SDS011;43222;52.912;6.940;2022-09-27T05:13:18;5.32;;;0.95;;
57395;SDS011;43222;52.912;6.940;2022-09-27T05:15:44;3.70;;;0.60;;
57395;SDS011;43222;52.912;6.940;2022-09-27T05:18:11;6.15;;;1.08;;
57395;SDS011;43222;52.912;6.940;2022-09-27T05:20:37;5.35;;;0.82;;
57395;SDS011;43222;52.912;6.940;2022-09-27T05:23:04;7.60;;;0.90;;
57395;SDS011;43222;52.912;6.940;2022-09-27T05:25:31;7.03;;;0.90;;
57395;SDS011;43222;52.912;6.940;2022-09-27T05:27:57;6.63;;;1.02;;
57395;SDS011;43222;52.912;6.940;2022-09-27T05:30:24;3.58;;;0.60;;
57395;SDS011;43222;52.912;6.940;2022-09-27T05:32:51;3.38;;;0.70;;
57395;SDS011;43222;52.912;6.940;2022-09-27T05:35:17;5.47;;;0.80;;
57395;SDS011;43222;52.912;6.940;2022-09-27T05:37:53;6.10;;;0.90;;
57395;SDS011;43222;52.912;6.940;2022-09-27T05:40:20;3.83;;;0.60;;
57395;SDS011;43222;52.912;6.940;2022-09-27T05:42:48;7.13;;;1.00;;
57395;SDS011;43222;52.912;6.940;2022-09-27T05:45:15;6.00;;;0.73;;
57395;SDS011;43222;52.912;6.940;2022-09-27T05:47:41;4.80;;;0.80;;
57395;SDS011;43222;52.912;6.940;2022-09-27T05:50:07;5.40;;;0.60;;
57395;SDS011;43222;52.912;6.940;2022-09-27T05:52:35;7.40;;;0.90;;
57395;SDS011;43222;52.912;6.940;2022-09-27T05:55:02;6.97;;;0.90;;
57395;SDS011;43222;52.912;6.940;2022-09-27T05:57:28;5.35;;;0.65;;
57395;SDS011;43222;52.912;6.940;2022-09-27T05:59:54;7.22;;;0.75;;
57395;SDS011;43222;52.912;6.940;2022-09-27T06:02:20;6.40;;;0.90;;
57395;SDS011;43222;52.912;6.940;2022-09-27T06:04:46;8.35;;;0.95;;
57395;SDS011;43222;52.912;6.940;2022-09-27T06:07:12;5.45;;;0.75;;
57395;SDS011;43222;52.912;6.940;2022-09-27T06:09:38;6.43;;;0.90;;
57395;SDS011;43222;52.912;6.940;2022-09-27T06:12:04;8.55;;;0.98;;
57395;SDS011;43222;52.912;6.940;2022-09-27T06:14:36;6.68;;;0.90;;
57395;SDS011;43222;52.912;6.940;2022-09-27T06:17:02;6.95;;;0.90;;
57395;SDS011;43222;52.912;6.940;2022-09-27T06:19:28;6.43;;;0.80;;
57395;SDS011;43222;52.912;6.940;2022-09-27T06:21:54;4.00;;;0.70;;
57395;SDS011;43222;52.912;6.940;2022-09-27T06:24:20;5.75;;;1.02;;
57395;SDS011;43222;52.912;6.940;2022-09-27T06:26:46;6.22;;;0.80;;
57395;SDS011;43222;52.912;6.940;2022-09-27T06:29:13;5.70;;;0.70;;
57395;SDS011;43222;52.912;6.940;2022-09-27T06:31:39;6.35;;;0.70;;
57395;SDS011;43222;52.912;6.940;2022-09-27T06:34:05;6.30;;;0.77;;
57395;SDS011;43222;52.912;6.940;2022-09-27T06:36:33;5.80;;;0.80;;
57395;SDS011;43222;52.912;6.940;2022-09-27T06:38:59;5.80;;;0.95;;
57395;SDS011;43222;52.912;6.940;2022-09-27T06:41:25;5.50;;;0.75;;
57395;SDS011;43222;52.912;6.940;2022-09-27T06:43:51;7.32;;;0.93;;
57395;SDS011;43222;52.912;6.940;2022-09-27T06:46:17;6.47;;;0.73;;
57395;SDS011;43222;52.912;6.940;2022-09-27T06:48:43;7.28;;;0.98;;
57395;SDS011;43222;52.912;6.940;2022-09-27T06:51:09;7.53;;;0.90;;
57395;SDS011;43222;52.912;6.940;2022-09-27T06:53:35;5.95;;;1.10;;
57395;SDS011;43222;52.912;6.940;2022-09-27T06:56:01;5.95;;;0.88;;
57395;SDS011;43222;52.912;6.940;2022-09-27T06:58:28;7.72;;;0.88;;
57395;SDS011;43222;52.912;6.940;2022-09-27T07:01:13;5.43;;;0.70;;
57395;SDS011;43222;52.912;6.940;2022-09-27T07:03:39;9.02;;;1.05;;
57395;SDS011;43222;52.912;6.940;2022-09-27T07:06:14;4.80;;;1.10;;
57395;SDS011;43222;52.912;6.940;2022-09-27T07:08:41;9.20;;;1.33;;
57395;SDS011;43222;52.912;6.940;2022-09-27T07:11:07;10.35;;;1.08;;
57395;SDS011;43222;52.912;6.940;2022-09-27T07:13:33;9.23;;;1.10;;
57395;SDS011;43222;52.912;6.940;2022-09-27T07:16:04;6.10;;;0.93;;
57395;SDS011;43222;52.912;6.940;2022-09-27T07:18:30;5.75;;;1.20;;
57395;SDS011;43222;52.912;6.940;2022-09-27T07:20:58;6.40;;;1.05;;
57395;SDS011;43222;52.912;6.940;2022-09-27T07:23:24;7.55;;;1.20;;
57395;SDS011;43222;52.912;6.940;2022-09-27T07:25:50;5.75;;;1.27;;
57395;SDS011;43222;52.912;6.940;2022-09-27T07:28:17;5.65;;;1.00;;
57395;SDS011;43222;52.912;6.940;2022-09-27T07:30:46;6.50;;;1.08;;
57395;SDS011;43222;52.912;6.940;2022-09-27T07:33:12;8.38;;;1.48;;
57395;SDS011;43222;52.912;6.940;2022-09-27T07:35:39;5.40;;;0.77;;
57395;SDS011;43222;52.912;6.940;2022-09-27T07:38:05;6.50;;;0.90;;
57395;SDS011;43222;52.912;6.940;2022-09-27T07:40:36;6.30;;;0.80;;
57395;SDS011;43222;52.912;6.940;2022-09-27T07:43:02;5.28;;;0.98;;
57395;SDS011;43222;52.912;6.940;2022-09-27T07:45:29;4.72;;;0.75;;
57395;SDS011;43222;52.912;6.940;2022-09-27T07:47:55;4.72;;;0.93;;
57395;SDS011;43222;52.912;6.940;2022-09-27T07:50:21;7.97;;;0.68;;
57395;SDS011;43222;52.912;6.940;2022-09-27T07:52:48;4.53;;;0.73;;
57395;SDS011;43222;52.912;6.940;2022-09-27T07:55:15;5.15;;;0.90;;
57395;SDS011;43222;52.912;6.940;2022-09-27T07:57:41;5.60;;;0.68;;
57395;SDS011;43222;52.912;6.940;2022-09-27T08:00:12;7.78;;;0.85;;
57395;SDS011;43222;52.912;6.940;2022-09-27T08:02:39;3.47;;;0.63;;
57395;SDS011;43222;52.912;6.940;2022-09-27T08:05:05;9.32;;;1.13;;
57395;SDS011;43222;52.912;6.940;2022-09-27T08:07:31;5.95;;;0.80;;
57395;SDS011;43222;52.912;6.940;2022-09-27T08:09:57;5.90;;;0.70;;
57395;SDS011;43222;52.912;6.940;2022-09-27T08:12:24;5.90;;;0.70;;
57395;SDS011;43222;52.912;6.940;2022-09-27T08:14:50;5.55;;;0.70;;
57395;SDS011;43222;52.912;6.940;2022-09-27T08:17:16;5.80;;;0.70;;
57395;SDS011;43222;52.912;6.940;2022-09-27T08:19:43;4.10;;;0.63;;
57395;SDS011;43222;52.912;6.940;2022-09-27T08:22:12;6.28;;;0.98;;
57395;SDS011;43222;52.912;6.940;2022-09-27T08:24:38;8.02;;;1.00;;
57395;SDS011;43222;52.912;6.940;2022-09-27T08:27:05;6.43;;;0.80;;
57395;SDS011;43222;52.912;6.940;2022-09-27T08:29:33;5.35;;;0.80;;
57395;SDS011;43222;52.912;6.940;2022-09-27T08:31:59;5.03;;;0.75;;
57395;SDS011;43222;52.912;6.940;2022-09-27T08:34:25;7.13;;;1.08;;
57395;SDS011;43222;52.912;6.940;2022-09-27T08:36:53;6.43;;;0.85;;
57395;SDS011;43222;52.912;6.940;2022-09-27T08:39:19;8.55;;;1.15;;
57395;SDS011;43222;52.912;6.940;2022-09-27T08:44:47;4.82;;;0.77;;
57395;SDS011;43222;52.912;6.940;2022-09-27T08:47:21;5.35;;;0.80;;
57395;SDS011;43222;52.912;6.940;2022-09-27T08:49:53;5.15;;;0.93;;
57395;SDS011;43222;52.912;6.940;2022-09-27T08:52:25;4.03;;;0.70;;
57395;SDS011;43222;52.912;6.940;2022-09-27T08:54:52;6.57;;;1.10;;
57395;SDS011;43222;52.912;6.940;2022-09-27T08:57:20;8.18;;;0.80;;
57395;SDS011;43222;52.912;6.940;2022-09-27T09:00:00;4.63;;;0.80;;
57395;SDS011;43222;52.912;6.940;2022-09-27T09:02:27;3.45;;;0.77;;
57395;SDS011;43222;52.912;6.940;2022-09-27T09:04:54;1.83;;;0.50;;
57395;SDS011;43222;52.912;6.940;2022-09-27T09:15:21;4.97;;;0.60;;
57395;SDS011;43222;52.912;6.940;2022-09-27T09:30:22;3.63;;;0.90;;
57395;SDS011;43222;52.912;6.940;2022-09-27T09:33:12;7.38;;;0.60;;
57395;SDS011;43222;52.912;6.940;2022-09-27T09:35:47;5.00;;;0.57;;
57395;SDS011;43222;52.912;6.940;2022-09-27T09:38:16;4.40;;;0.60;;
57395;SDS011;43222;52.912;6.940;2022-09-27T09:41:04;5.13;;;0.60;;
57395;SDS011;43222;52.912;6.940;2022-09-27T09:46:07;4.15;;;0.52;;
57395;SDS011;43222;52.912;6.940;2022-09-27T09:48:40;5.22;;;0.80;;
57395;SDS011;43222;52.912;6.940;2022-09-27T09:51:09;5.97;;;0.60;;
57395;SDS011;43222;52.912;6.940;2022-09-27T09:58:52;3.05;;;0.60;;
57395;SDS011;43222;52.912;6.940;2022-09-27T10:01:20;3.63;;;0.70;;
57395;SDS011;43222;52.912;6.940;2022-09-27T10:03:46;3.22;;;0.50;;
57395;SDS011;43222;52.912;6.940;2022-09-27T10:06:13;5.70;;;0.50;;
57395;SDS011;43222;52.912;6.940;2022-09-27T10:08:40;6.75;;;0.60;;
57395;SDS011;43222;52.912;6.940;2022-09-27T10:11:09;2.65;;;0.47;;
57395;SDS011;43222;52.912;6.940;2022-09-27T10:13:38;3.78;;;0.47;;
57395;SDS011;43222;52.912;6.940;2022-09-27T10:16:07;4.57;;;0.50;;
57395;SDS011;43222;52.912;6.940;2022-09-27T10:18:35;1.95;;;0.30;;
57395;SDS011;43222;52.912;6.940;2022-09-27T10:21:03;5.95;;;0.60;;
57395;SDS011;43222;52.912;6.940;2022-09-27T10:23:31;4.30;;;0.70;;
57395;SDS011;43222;52.912;6.940;2022-09-27T10:25:58;4.68;;;0.68;;
57395;SDS011;43222;52.912;6.940;2022-09-27T10:31:02;4.80;;;0.80;;
57395;SDS011;43222;52.912;6.940;2022-09-27T10:33:29;4.50;;;0.93;;
57395;SDS011;43222;52.912;6.940;2022-09-27T10:35:56;5.55;;;1.50;;
57395;SDS011;43222;52.912;6.940;2022-09-27T10:38:27;6.90;;;1.08;;
57395;SDS011;43222;52.912;6.940;2022-09-27T10:40:54;4.93;;;0.80;;
57395;SDS011;43222;52.912;6.940;2022-09-27T10:43:30;3.88;;;0.63;;
57395;SDS011;43222;52.912;6.940;2022-09-27T10:48:25;4.43;;;0.90;;
57395;SDS011;43222;52.912;6.940;2022-09-27T10:50:55;5.85;;;0.90;;
57395;SDS011;43222;52.912;6.940;2022-09-27T10:53:23;9.40;;;0.93;;
57395;SDS011;43222;52.912;6.940;2022-09-27T10:55:50;2.83;;;0.57;;
57395;SDS011;43222;52.912;6.940;2022-09-27T10:58:17;2.45;;;0.50;;
57395;SDS011;43222;52.912;6.940;2022-09-27T11:00:44;1.10;;;0.30;;
57395;SDS011;43222;52.912;6.940;2022-09-27T11:03:19;4.57;;;0.47;;
57395;SDS011;43222;52.912;6.940;2022-09-27T11:05:45;1.50;;;0.30;;
57395;SDS011;43222;52.912;6.940;2022-09-27T11:10:43;1.25;;;0.40;;
57395;SDS011;43222;52.912;6.940;2022-09-27T11:13:14;1.73;;;0.30;;
57395;SDS011;43222;52.912;6.940;2022-09-27T11:21:17;1.75;;;0.30;;
57395;SDS011;43222;52.912;6.940;2022-09-27T11:26:22;0.40;;;0.20;;
57395;SDS011;43222;52.912;6.940;2022-09-27T11:28:58;3.30;;;0.60;;
57395;SDS011;43222;52.912;6.940;2022-09-27T11:31:35;1.42;;;0.30;;
57395;SDS011;43222;52.912;6.940;2022-09-27T11:39:16;2.22;;;0.40;;
57395;SDS011;43222;52.912;6.940;2022-09-27T11:54:39;2.70;;;0.50;;
57395;SDS011;43222;52.912;6.940;2022-09-27T12:02:16;2.22;;;0.30;;
57395;SDS011;43222;52.912;6.940;2022-09-27T12:04:48;2.75;;;0.30;;
57395;SDS011;43222;52.912;6.940;2022-09-27T12:09:43;0.73;;;0.32;;
57395;SDS011;43222;52.912;6.940;2022-09-27T12:12:12;3.05;;;0.30;;
57395;SDS011;43222;52.912;6.940;2022-09-27T12:14:52;1.10;;;0.20;;
57395;SDS011;43222;52.912;6.940;2022-09-27T12:17:24;1.33;;;0.20;;
57395;SDS011;43222;52.912;6.940;2022-09-27T12:19:52;3.15;;;0.30;;
57395;SDS011;43222;52.912;6.940;2022-09-27T12:22:27;1.13;;;0.30;;
57395;SDS011;43222;52.912;6.940;2022-09-27T12:24:53;2.20;;;0.30;;
57395;SDS011;43222;52.912;6.940;2022-09-27T12:27:23;6.43;;;0.50;;
57395;SDS011;43222;52.912;6.940;2022-09-27T12:29:51;2.72;;;0.90;;
57395;SDS011;43222;52.912;6.940;2022-09-27T12:32:28;3.13;;;0.70;;
57395;SDS011;43222;52.912;6.940;2022-09-27T12:40:25;3.30;;;0.40;;
57395;SDS011;43222;52.912;6.940;2022-09-27T12:43:03;5.38;;;0.50;;
57395;SDS011;43222;52.912;6.940;2022-09-27T12:50:52;3.97;;;0.57;;
57395;SDS011;43222;52.912;6.940;2022-09-27T13:06:23;1.63;;;0.50;;
57395;SDS011;43222;52.912;6.940;2022-09-27T13:14:26;4.78;;;0.75;;
57395;SDS011;43222;52.912;6.940;2022-09-27T13:16:53;4.82;;;1.00;;
57395;SDS011;43222;52.912;6.940;2022-09-27T13:22:01;4.60;;;1.20;;
57395;SDS011;43222;52.912;6.940;2022-09-27T13:29:49;5.50;;;0.90;;
57395;SDS011;43222;52.912;6.940;2022-09-27T13:32:16;5.55;;;0.70;;
57395;SDS011;43222;52.912;6.940;2022-09-27T13:34:46;9.45;;;1.15;;
57395;SDS011;43222;52.912;6.940;2022-09-27T13:40:09;5.05;;;0.80;;
57395;SDS011;43222;52.912;6.940;2022-09-27T13:42:38;4.53;;;0.60;;
57395;SDS011;43222;52.912;6.940;2022-09-27T13:45:12;4.45;;;0.90;;
57395;SDS011;43222;52.912;6.940;2022-09-27T13:47:43;3.25;;;0.90;;
57395;SDS011;43222;52.912;6.940;2022-09-27T13:50:16;3.10;;;0.70;;
57395;SDS011;43222;52.912;6.940;2022-09-27T13:52:44;2.33;;;0.60;;
57395;SDS011;43222;52.912;6.940;2022-09-27T13:57:59;2.22;;;0.40;;
57395;SDS011;43222;52.912;6.940;2022-09-27T14:00:37;2.33;;;0.40;;
57395;SDS011;43222;52.912;6.940;2022-09-27T14:05:46;2.17;;;0.50;;
57395;SDS011;43222;52.912;6.940;2022-09-27T14:08:20;1.95;;;0.30;;
57395;SDS011;43222;52.912;6.940;2022-09-27T14:10:49;2.67;;;0.63;;
57395;SDS011;43222;52.912;6.940;2022-09-27T14:13:16;5.38;;;1.60;;
57395;SDS011;43222;52.912;6.940;2022-09-27T14:15:46;4.72;;;1.30;;
57395;SDS011;43222;52.912;6.940;2022-09-27T14:18:14;5.68;;;1.45;;
57395;SDS011;43222;52.912;6.940;2022-09-27T14:20:41;4.55;;;0.90;;
57395;SDS011;43222;52.912;6.940;2022-09-27T14:23:15;4.65;;;0.73;;
57395;SDS011;43222;52.912;6.940;2022-09-27T14:25:46;4.18;;;0.73;;
57395;SDS011;43222;52.912;6.940;2022-09-27T14:28:25;4.47;;;1.00;;
57395;SDS011;43222;52.912;6.940;2022-09-27T14:33:37;6.10;;;1.02;;
57395;SDS011;43222;52.912;6.940;2022-09-27T14:36:05;2.58;;;0.60;;
57395;SDS011;43222;52.912;6.940;2022-09-27T14:38:50;4.63;;;0.80;;
57395;SDS011;43222;52.912;6.940;2022-09-27T14:41:16;3.40;;;0.85;;
57395;SDS011;43222;52.912;6.940;2022-09-27T14:43:43;2.83;;;0.60;;
57395;SDS011;43222;52.912;6.940;2022-09-27T14:46:22;3.53;;;0.60;;
57395;SDS011;43222;52.912;6.940;2022-09-27T14:48:49;5.10;;;0.80;;
57395;SDS011;43222;52.912;6.940;2022-09-27T14:51:17;4.38;;;0.70;;
57395;SDS011;43222;52.912;6.940;2022-09-27T14:53:48;3.28;;;0.55;;
57395;SDS011;43222;52.912;6.940;2022-09-27T14:56:18;2.53;;;0.50;;
57395;SDS011;43222;52.912;6.940;2022-09-27T14:58:47;4.28;;;0.60;;
57395;SDS011;43222;52.912;6.940;2022-09-27T15:01:15;1.98;;;0.50;;
57395;SDS011;43222;52.912;6.940;2022-09-27T15:03:41;3.50;;;0.60;;
57395;SDS011;43222;52.912;6.940;2022-09-27T15:06:09;3.25;;;0.70;;
57395;SDS011;43222;52.912;6.940;2022-09-27T15:08:35;3.72;;;0.68;;
57395;SDS011;43222;52.912;6.940;2022-09-27T15:11:03;3.53;;;0.82;;
57395;SDS011;43222;52.912;6.940;2022-09-27T15:13:31;2.95;;;0.70;;
57395;SDS011;43222;52.912;6.940;2022-09-27T15:15:58;3.33;;;0.70;;
57395;SDS011;43222;52.912;6.940;2022-09-27T15:20:53;2.40;;;0.70;;
57395;SDS011;43222;52.912;6.940;2022-09-27T15:23:25;3.53;;;0.47;;
57395;SDS011;43222;52.912;6.940;2022-09-27T15:26:01;4.65;;;0.50;;
57395;SDS011;43222;52.912;6.940;2022-09-27T15:28:28;5.15;;;0.80;;
57395;SDS011;43222;52.912;6.940;2022-09-27T15:30:55;3.97;;;0.95;;
57395;SDS011;43222;52.912;6.940;2022-09-27T15:33:22;4.70;;;0.80;;
57395;SDS011;43222;52.912;6.940;2022-09-27T15:35:52;3.42;;;0.77;;
57395;SDS011;43222;52.912;6.940;2022-09-27T15:38:22;3.03;;;0.63;;
57395;SDS011;43222;52.912;6.940;2022-09-27T15:45:48;3.33;;;0.90;;
57395;SDS011;43222;52.912;6.940;2022-09-27T15:48:16;4.80;;;0.73;;
57395;SDS011;43222;52.912;6.940;2022-09-27T15:50:42;2.80;;;0.60;;
57395;SDS011;43222;52.912;6.940;2022-09-27T15:53:10;2.33;;;0.50;;
57395;SDS011;43222;52.912;6.940;2022-09-27T15:55:43;3.40;;;0.70;;
57395;SDS011;43222;52.912;6.940;2022-09-27T15:58:17;4.45;;;0.90;;
57395;SDS011;43222;52.912;6.940;2022-09-27T16:03:20;2.40;;;0.70;;
57395;SDS011;43222;52.912;6.940;2022-09-27T16:05:46;3.65;;;0.80;;
57395;SDS011;43222;52.912;6.940;2022-09-27T16:08:12;4.10;;;1.00;;
57395;SDS011;43222;52.912;6.940;2022-09-27T16:10:38;3.97;;;0.98;;
57395;SDS011;43222;52.912;6.940;2022-09-27T16:13:08;4.90;;;1.50;;
57395;SDS011;43222;52.912;6.940;2022-09-27T16:15:34;4.40;;;1.30;;
57395;SDS011;43222;52.912;6.940;2022-09-27T16:18:01;4.45;;;1.30;;
57395;SDS011;43222;52.912;6.940;2022-09-27T16:20:27;5.05;;;1.50;;
57395;SDS011;43222;52.912;6.940;2022-09-27T16:22:53;4.45;;;1.17;;
57395;SDS011;43222;52.912;6.940;2022-09-27T16:25:20;3.38;;;1.10;;
57395;SDS011;43222;52.912;6.940;2022-09-27T16:27:47;4.80;;;0.90;;
57395;SDS011;43222;52.912;6.940;2022-09-27T16:30:13;3.33;;;1.02;;
57395;SDS011;43222;52.912;6.940;2022-09-27T16:32:40;4.85;;;1.55;;
57395;SDS011;43222;52.912;6.940;2022-09-27T16:35:07;5.43;;;1.77;;
57395;SDS011;43222;52.912;6.940;2022-09-27T16:37:33;7.68;;;2.33;;
57395;SDS011;43222;52.912;6.940;2022-09-27T16:39:59;7.88;;;2.33;;
57395;SDS011;43222;52.912;6.940;2022-09-27T16:42:25;5.88;;;2.10;;
57395;SDS011;43222;52.912;6.940;2022-09-27T16:44:52;5.00;;;1.70;;
57395;SDS011;43222;52.912;6.940;2022-09-27T16:47:18;5.63;;;1.60;;
57395;SDS011;43222;52.912;6.940;2022-09-27T16:49:44;5.75;;;1.70;;
57395;SDS011;43222;52.912;6.940;2022-09-27T16:52:29;7.35;;;2.47;;
57395;SDS011;43222;52.912;6.940;2022-09-27T16:54:57;10.70;;;3.47;;
57395;SDS011;43222;52.912;6.940;2022-09-27T16:57:24;12.32;;;6.60;;
57395;SDS011;43222;52.912;6.940;2022-09-27T16:59:52;12.35;;;6.13;;
57395;SDS011;43222;52.912;6.940;2022-09-27T17:02:19;12.95;;;5.60;;
57395;SDS011;43222;52.912;6.940;2022-09-27T17:04:45;12.70;;;6.15;;
57395;SDS011;43222;52.912;6.940;2022-09-27T17:07:11;11.25;;;5.53;;
57395;SDS011;43222;52.912;6.940;2022-09-27T17:09:37;14.30;;;6.00;;
57395;SDS011;43222;52.912;6.940;2022-09-27T17:12:04;11.05;;;5.35;;
57395;SDS011;43222;52.912;6.940;2022-09-27T17:14:30;16.35;;;7.13;;
57395;SDS011;43222;52.912;6.940;2022-09-27T17:16:59;14.38;;;6.50;;
57395;SDS011;43222;52.912;6.940;2022-09-27T17:19:25;7.90;;;3.50;;
57395;SDS011;43222;52.912;6.940;2022-09-27T17:21:52;11.25;;;4.20;;
57395;SDS011;43222;52.912;6.940;2022-09-27T17:24:20;9.48;;;3.90;;
57395;SDS011;43222;52.912;6.940;2022-09-27T17:26:46;8.27;;;3.72;;
57395;SDS011;43222;52.912;6.940;2022-09-27T17:29:12;8.93;;;3.85;;
57395;SDS011;43222;52.912;6.940;2022-09-27T17:31:39;11.18;;;6.20;;
57395;SDS011;43222;52.912;6.940;2022-09-27T17:34:06;10.90;;;5.28;;
57395;SDS011;43222;52.912;6.940;2022-09-27T17:36:36;8.65;;;3.22;;
57395;SDS011;43222;52.912;6.940;2022-09-27T17:39:03;10.85;;;3.38;;
57395;SDS011;43222;52.912;6.940;2022-09-27T17:41:30;14.35;;;7.72;;
57395;SDS011;43222;52.912;6.940;2022-09-27T17:44:01;12.63;;;6.90;;
57395;SDS011;43222;52.912;6.940;2022-09-27T17:46:32;12.55;;;5.45;;
57395;SDS011;43222;52.912;6.940;2022-09-27T17:48:59;10.98;;;3.80;;
57395;SDS011;43222;52.912;6.940;2022-09-27T17:51:47;6.93;;;2.22;;
57395;SDS011;43222;52.912;6.940;2022-09-27T17:54:14;7.70;;;2.38;;
57395;SDS011;43222;52.912;6.940;2022-09-27T17:56:42;6.53;;;2.67;;